Time;durP1;ratioP1;P1;durP2;ratioP2;P2;SDS_P1;SDS_P2;PMS_P1;PMS_P2;Temp;Humidity;BMP_temperature;BMP_pressure;BME280_temperature;BME280_humidity;BME280_pressure;Samples;Min_cycle;Max_cycle;Signal;HPM_P1;HPM_P2
2022/12/12 00:02:14;;;;;;;2.33;2.12;;;;;;;1.86;100.00;97937.54;1685298;82;21511;-56
2022/12/12 00:04:42;;;;;;;2.25;2.10;;;;;;;1.86;100.00;97934.95;1691245;82;21587;-56
2022/12/12 00:07:09;;;;;;;1.90;1.80;;;;;;;1.85;100.00;97937.16;1677112;83;20963;-56
2022/12/12 00:09:37;;;;;;;2.27;2.08;;;;;;;1.78;100.00;97938.73;1678433;82;21440;-57
2022/12/12 00:12:05;;;;;;;2.20;2.00;;;;;;;1.78;100.00;97951.22;1692299;82;21518;-58
2022/12/12 00:14:33;;;;;;;2.33;2.22;;;;;;;1.83;100.00;97944.57;1690227;82;21002;-57
2022/12/12 00:16:59;;;;;;;3.20;3.00;;;;;;;1.84;100.00;97940.64;1692620;84;20982;-57
2022/12/12 00:19:26;;;;;;;2.55;2.35;;;;;;;1.86;100.00;97926.34;1683295;82;21542;-57
2022/12/12 00:21:53;;;;;;;1.98;1.87;;;;;;;1.79;100.00;97940.40;1689813;82;22072;-57
2022/12/12 00:24:20;;;;;;;2.60;2.40;;;;;;;1.71;100.00;97947.14;1692160;82;21593;-58
2022/12/12 00:26:47;;;;;;;2.30;2.10;;;;;;;1.75;100.00;97959.96;1680051;82;21401;-56
2022/12/12 00:29:13;;;;;;;2.62;2.42;;;;;;;1.76;100.00;97962.09;1733710;80;21459;-56
2022/12/12 00:31:41;;;;;;;2.50;2.40;;;;;;;1.75;100.00;97978.09;1697024;83;21572;-60
2022/12/12 00:34:07;;;;;;;2.47;2.27;;;;;;;1.68;100.00;97984.84;1691602;82;21798;-57
2022/12/12 00:36:34;;;;;;;2.22;2.12;;;;;;;1.64;100.00;97982.80;1694661;83;21512;-57
2022/12/12 00:39:01;;;;;;;3.42;2.70;;;;;;;1.65;100.00;97975.41;1693315;83;21439;-57
2022/12/12 00:41:28;;;;;;;2.17;2.08;;;;;;;1.67;100.00;97980.54;1691237;82;21502;-57
2022/12/12 00:43:54;;;;;;;2.70;2.50;;;;;;;1.75;100.00;97985.88;1724071;80;21680;-57
2022/12/12 00:46:23;;;;;;;2.37;2.17;;;;;;;1.63;100.00;97975.91;1735786;80;21874;-58
2022/12/12 00:48:54;;;;;;;2.12;1.98;;;;;;;1.64;100.00;97978.91;1720322;82;21545;-57
2022/12/12 00:51:22;;;;;;;2.55;2.35;;;;;;;1.59;100.00;97971.73;1728532;80;21495;-57
2022/12/12 00:53:49;;;;;;;2.62;2.42;;;;;;;1.62;100.00;97963.00;1738376;80;21533;-57
2022/12/12 00:56:17;;;;;;;2.50;2.30;;;;;;;1.62;100.00;97967.75;1726768;80;21423;-55
2022/12/12 00:58:44;;;;;;;2.60;2.40;;;;;;;1.67;100.00;97977.95;1697101;83;22132;-55
2022/12/12 01:01:13;;;;;;;3.08;2.30;;;;;;;1.74;100.00;97981.58;1693059;83;21577;-55
2022/12/12 01:03:41;;;;;;;2.67;2.47;;;;;;;1.61;100.00;97979.45;1719871;80;21641;-56
2022/12/12 01:06:08;;;;;;;2.80;2.60;;;;;;;1.60;100.00;97988.11;1722355;80;21443;-56
2022/12/12 01:08:38;;;;;;;2.08;1.98;;;;;;;1.64;100.00;97979.33;1721600;80;20931;-57
2022/12/12 01:11:05;;;;;;;2.85;2.42;;;;;;;1.70;100.00;97973.52;1688928;83;21936;-56
2022/12/12 01:13:32;;;;;;;2.33;2.12;;;;;;;1.70;100.00;97985.62;1698998;83;21461;-56
2022/12/12 01:15:59;;;;;;;3.12;2.83;;;;;;;1.64;100.00;97981.92;1692225;83;21548;-56
2022/12/12 01:18:26;;;;;;;2.75;2.55;;;;;;;1.66;100.00;97983.59;1738373;80;21107;-56
2022/12/12 01:20:53;;;;;;;3.22;2.65;;;;;;;1.67;100.00;97981.37;1726905;80;21466;-56
2022/12/12 01:23:19;;;;;;;2.58;2.37;;;;;;;1.73;100.00;98005.81;1728268;80;21582;-59
2022/12/12 01:25:46;;;;;;;2.27;2.17;;;;;;;1.66;100.00;98010.80;1727678;79;21463;-56
2022/12/12 01:28:12;;;;;;;2.35;2.15;;;;;;;1.60;100.00;98014.89;1732643;81;21497;-56
2022/12/12 01:30:39;;;;;;;2.55;2.17;;;;;;;1.58;100.00;98019.24;1730438;80;21481;-57
2022/12/12 01:33:06;;;;;;;2.67;2.47;;;;;;;1.61;100.00;98015.73;1736913;80;21403;-56
2022/12/12 01:35:32;;;;;;;2.60;2.40;;;;;;;1.64;100.00;98014.31;1730195;80;21846;-56
2022/12/12 01:37:59;;;;;;;2.27;2.12;;;;;;;1.66;100.00;98007.36;1729580;81;21656;-56
2022/12/12 01:40:28;;;;;;;2.37;2.17;;;;;;;1.67;100.00;98016.36;1738794;80;21399;-56
2022/12/12 01:42:55;;;;;;;2.70;2.50;;;;;;;1.68;100.00;98023.25;1731282;80;21446;-56
2022/12/12 01:46:01;;;;;;;3.40;2.52;;;;;;;1.68;100.00;98025.00;1729301;80;21513;-56
2022/12/12 01:48:38;;;;;;;2.90;2.55;;;;;;;1.68;100.00;98010.30;1729486;80;21890;-57
2022/12/12 01:51:08;;;;;;;2.85;2.60;;;;;;;1.54;100.00;98013.34;1743618;80;21541;-57
2022/12/12 01:53:35;;;;;;;2.45;2.25;;;;;;;1.48;100.00;98013.97;1727407;80;21442;-56
2022/12/12 01:56:03;;;;;;;3.25;3.02;;;;;;;1.51;100.00;98019.06;1738481;80;21550;-57
2022/12/12 01:58:30;;;;;;;3.83;2.55;;;;;;;1.56;100.00;98013.27;1729025;80;21738;-57
2022/12/12 02:00:57;;;;;;;2.30;2.20;;;;;;;1.57;100.00;98021.45;1730054;81;21812;-58
2022/12/12 02:03:24;;;;;;;2.83;2.40;;;;;;;1.53;100.00;98022.00;1732643;80;21537;-58
2022/12/12 02:05:55;;;;;;;2.60;2.40;;;;;;;1.50;100.00;98019.95;1703264;83;21505;-57
2022/12/12 02:08:22;;;;;;;2.58;2.37;;;;;;;1.55;100.00;98016.31;1700068;82;21489;-57
2022/12/12 02:10:48;;;;;;;2.52;2.33;;;;;;;1.58;100.00;97995.09;1696353;83;21557;-56
2022/12/12 02:13:22;;;;;;;2.60;2.40;;;;;;;1.58;100.00;97995.09;1678866;83;21895;-57
2022/12/12 02:16:26;;;;;;;5.05;2.37;;;;;;;1.54;100.00;98003.41;1681482;83;21165;-55
2022/12/12 02:19:42;;;;;;;2.42;2.30;;;;;;;1.51;100.00;98010.84;1676470;83;21535;-55
2022/12/12 02:22:33;;;;;;;3.10;2.50;;;;;;;1.52;100.00;98022.88;1606038;86;21486;-55
2022/12/12 02:25:32;;;;;;;2.20;2.00;;;;;;;1.51;100.00;98008.25;1723259;80;21411;-56
2022/12/12 02:28:30;;;;;;;2.70;2.50;;;;;;;1.47;100.00;97985.07;1750792;80;21792;-56
2022/12/12 02:31:36;;;;;;;2.83;2.62;;;;;;;1.46;100.00;97923.82;1734135;80;21429;-58
2022/12/12 02:34:11;;;;;;;2.70;2.50;;;;;;;1.49;100.00;97929.75;1736870;80;21565;-59
2022/12/12 02:37:14;;;;;;;2.65;2.45;;;;;;;1.51;100.00;97981.05;1692711;83;21549;-56
2022/12/12 02:40:07;;;;;;;2.60;2.40;;;;;;;1.51;100.00;97991.41;1696979;82;21555;-55
2022/12/12 02:42:43;;;;;;;2.50;2.30;;;;;;;1.49;100.00;98010.50;1696835;83;21785;-56
2022/12/12 02:45:39;;;;;;;2.60;2.42;;;;;;;1.50;100.00;98016.91;1698750;83;21473;-57
2022/12/12 02:48:17;;;;;;;3.20;2.90;;;;;;;1.49;100.00;98030.77;1698765;83;21660;-56
2022/12/12 02:50:44;;;;;;;2.58;2.37;;;;;;;1.41;100.00;98019.78;1712596;82;21489;-56
2022/12/12 02:53:11;;;;;;;2.72;2.52;;;;;;;1.37;100.00;98027.26;1701740;82;21426;-56
2022/12/12 02:55:37;;;;;;;2.55;2.35;;;;;;;1.41;100.00;98012.47;1706710;81;21548;-56
2022/12/12 02:58:05;;;;;;;2.58;2.37;;;;;;;1.43;100.00;98003.78;1674879;84;21625;-57
2022/12/12 03:00:36;;;;;;;2.55;2.35;;;;;;;1.41;100.00;97985.27;1678652;83;21559;-57
2022/12/12 03:09:36;;;;;;;3.20;2.98;;;;;;;1.34;100.00;98023.03;1685709;83;21802;-55
2022/12/12 03:12:09;;;;;;;2.72;2.52;;;;;;;1.33;100.00;98026.95;1679413;83;21095;-58
2022/12/12 03:14:48;;;;;;;2.92;2.72;;;;;;;1.27;100.00;98028.45;1682639;83;21006;-58
2022/12/12 03:17:35;;;;;;;3.17;2.98;;;;;;;1.25;100.00;98021.18;1681187;83;21492;-57
2022/12/12 03:20:22;;;;;;;3.02;2.83;;;;;;;1.27;100.00;98033.63;1683653;83;21542;-56
2022/12/12 03:23:00;;;;;;;2.67;2.47;;;;;;;1.32;100.00;98055.06;1678292;83;21744;-57
2022/12/12 03:25:44;;;;;;;2.37;2.20;;;;;;;1.31;100.00;98042.99;1670465;84;21420;-56
2022/12/12 03:28:31;;;;;;;3.47;3.05;;;;;;;1.27;100.00;98042.69;1661424;83;21603;-56
2022/12/12 03:31:01;;;;;;;;;;;;;;;1.32;100.00;98047.30;1727228;82;21469;-57
2022/12/12 03:33:43;;;;;;;2.72;2.52;;;;;;;1.27;100.00;98044.83;1735657;81;20206;-56
2022/12/12 03:36:25;;;;;;;2.67;2.47;;;;;;;1.33;100.00;98042.04;1721824;81;21644;-56
2022/12/12 03:38:56;;;;;;;2.95;2.40;;;;;;;1.31;100.00;98046.42;1690309;83;21605;-57
2022/12/12 03:41:30;;;;;;;3.62;2.90;;;;;;;1.27;100.00;98054.34;1694810;82;21486;-57
2022/12/12 03:44:14;;;;;;;2.65;2.42;;;;;;;1.19;100.00;98074.42;1684679;83;21513;-56
2022/12/12 03:46:47;;;;;;;2.98;2.75;;;;;;;1.18;100.00;98069.70;1685735;83;21751;-56
2022/12/12 03:49:22;;;;;;;2.70;2.50;;;;;;;1.20;100.00;98069.66;1696340;83;21589;-57
2022/12/12 03:51:54;;;;;;;2.75;2.55;;;;;;;1.14;100.00;98083.63;1730697;80;21568;-56
2022/12/12 03:54:25;;;;;;;3.00;2.80;;;;;;;1.13;100.00;98081.50;1725455;82;21564;-56
2022/12/12 03:57:11;;;;;;;3.20;2.90;;;;;;;1.18;100.00;98077.92;1734480;80;21595;-56
2022/12/12 03:59:45;;;;;;;3.50;2.75;;;;;;;1.19;100.00;98071.83;1734280;81;21521;-56
2022/12/12 04:02:23;;;;;;;2.62;2.42;;;;;;;1.22;100.00;98075.64;1721600;81;21756;-56
2022/12/12 04:05:11;;;;;;;3.00;2.80;;;;;;;1.23;100.00;98085.95;1731206;81;21444;-56
2022/12/12 04:07:44;;;;;;;2.80;2.60;;;;;;;1.23;100.00;98087.25;1730787;81;21435;-55
2022/12/12 04:13:32;;;;;;;2.57;2.37;;;;;;;1.22;100.00;98057.52;1725639;81;21439;-57
2022/12/12 04:16:07;;;;;;;2.85;2.25;;;;;;;1.18;100.00;98055.46;1727212;81;21804;-57
2022/12/12 04:18:54;;;;;;;2.33;2.12;;;;;;;1.14;100.00;98067.64;1728075;81;21533;-56
2022/12/12 04:24:51;;;;;;;2.52;2.33;;;;;;;1.16;100.00;98071.03;1695265;83;21585;-55
2022/12/12 04:27:25;;;;;;;3.00;2.80;;;;;;;1.16;100.00;98072.78;1674005;84;21126;-55
2022/12/12 04:30:07;;;;;;;2.37;2.17;;;;;;;1.12;100.00;98088.85;1731721;80;21796;-55
2022/12/12 04:32:51;;;;;;;2.72;2.52;;;;;;;1.08;100.00;98081.23;1691990;81;21510;-56
2022/12/12 04:35:26;;;;;;;2.55;2.35;;;;;;;1.10;100.00;98084.62;1735746;80;21678;-55
2022/12/12 06:54:43;;;;;;;4.83;4.33;;;;;;;0.66;100.00;98238.93;1777139;78;21553;-55
2022/12/12 06:57:10;;;;;;;5.90;4.85;;;;;;;0.67;100.00;98218.63;1768737;80;21596;-56
2022/12/12 06:59:37;;;;;;;4.72;4.25;;;;;;;0.66;100.00;98214.77;1777315;78;21444;-55
2022/12/12 07:02:03;;;;;;;5.78;4.45;;;;;;;0.61;100.00;98208.89;1759131;80;21408;-56
2022/12/12 07:04:30;;;;;;;5.00;4.50;;;;;;;0.57;100.00;98214.58;1793992;78;21431;-55
2022/12/12 07:06:57;;;;;;;4.50;4.10;;;;;;;0.53;100.00;98215.55;1769085;78;21590;-56
2022/12/12 07:09:24;;;;;;;4.67;4.17;;;;;;;0.55;100.00;98204.27;1750531;80;21411;-55
2022/12/12 07:11:50;;;;;;;5.17;4.67;;;;;;;0.56;100.00;98198.64;1768137;80;21767;-56
2022/12/12 07:14:17;;;;;;;5.27;4.37;;;;;;;0.54;100.00;98204.30;1772614;80;21444;-56
2022/12/12 07:16:44;;;;;;;7.53;4.80;;;;;;;0.55;100.00;98206.02;1765344;80;20955;-56
2022/12/12 07:19:10;;;;;;;5.28;4.75;;;;;;;0.54;100.00;98209.47;1800419;78;21646;-56
2022/12/12 07:21:37;;;;;;;5.40;4.80;;;;;;;0.67;100.00;98208.72;1799660;78;21460;-56
2022/12/12 07:24:05;;;;;;;4.90;4.37;;;;;;;0.58;100.00;98197.73;1770604;80;21903;-55
2022/12/12 07:26:32;;;;;;;4.80;4.30;;;;;;;0.50;100.00;98194.92;1775133;78;21491;-55
2022/12/12 07:28:58;;;;;;;5.47;4.60;;;;;;;0.48;100.00;98195.41;1770786;80;21517;-55
2022/12/12 07:31:25;;;;;;;6.20;4.90;;;;;;;0.55;100.00;98202.14;1759649;80;21560;-54
2022/12/12 07:33:53;;;;;;;6.05;5.45;;;;;;;0.55;100.00;98202.14;1782477;78;20956;-54
2022/12/12 07:36:19;;;;;;;;;;;;;;;0.52;100.00;98208.67;1758342;80;21894;-54
2022/12/12 07:38:46;;;;;;;6.22;5.05;;;;;;;0.38;100.00;98214.20;1743881;80;20458;-56
2022/12/12 07:41:15;;;;;;;5.83;5.12;;;;;;;0.46;100.00;98208.83;1769175;80;21580;-58
2022/12/12 07:43:43;;;;;;;6.35;4.97;;;;;;;0.52;100.00;98210.80;1770594;79;21493;-59
2022/12/12 07:46:11;;;;;;;7.45;5.92;;;;;;;0.60;100.00;98207.18;1768494;80;20994;-57
2022/12/12 07:48:38;;;;;;;8.88;5.20;;;;;;;0.54;100.00;98210.77;1785615;78;22224;-58
2022/12/12 07:51:05;;;;;;;6.08;5.37;;;;;;;0.47;100.00;98210.51;1748587;80;21552;-55
2022/12/12 07:53:32;;;;;;;6.90;5.67;;;;;;;0.56;100.00;98224.05;1760983;80;21531;-60
2022/12/12 07:55:58;;;;;;;7.75;5.87;;;;;;;0.65;100.00;98222.14;1777088;79;22087;-56
2022/12/12 07:58:27;;;;;;;7.87;6.25;;;;;;;0.70;100.00;98212.09;1774477;79;21876;-56
2022/12/12 08:00:53;;;;;;;6.12;5.53;;;;;;;0.72;100.00;98216.77;1770983;79;21808;-56
2022/12/12 08:03:20;;;;;;;6.50;5.78;;;;;;;0.80;100.00;98217.86;1775811;79;21501;-59
2022/12/12 08:05:46;;;;;;;7.55;6.10;;;;;;;0.76;100.00;98222.72;1776012;79;21505;-55
2022/12/12 08:08:13;;;;;;;6.92;6.15;;;;;;;0.73;100.00;98217.61;1773379;79;21591;-55
2022/12/12 08:10:41;;;;;;;7.67;6.37;;;;;;;0.76;100.00;98220.97;1774338;79;21009;-55
2022/12/12 08:13:08;;;;;;;6.92;6.22;;;;;;;0.73;100.00;98226.22;1774378;79;22139;-56
2022/12/12 08:15:35;;;;;;;9.25;7.00;;;;;;;0.75;100.00;98221.01;1776130;79;21500;-56
2022/12/12 08:18:01;;;;;;;7.60;6.55;;;;;;;0.78;100.00;98226.95;1766478;79;21589;-56
2022/12/12 08:20:29;;;;;;;8.73;6.78;;;;;;;0.74;100.00;98230.97;1758640;79;21497;-56
2022/12/12 08:22:56;;;;;;;7.60;6.35;;;;;;;0.77;100.00;98244.68;1769545;79;21467;-56
2022/12/12 08:25:22;;;;;;;8.53;6.97;;;;;;;0.70;100.00;98241.00;1744283;79;21828;-55
2022/12/12 08:27:49;;;;;;;8.75;7.80;;;;;;;0.72;100.00;98234.88;1779998;79;21510;-55
2022/12/12 08:30:16;;;;;;;10.85;7.72;;;;;;;0.80;100.00;98213.14;1774954;79;21619;-56
2022/12/12 08:32:42;;;;;;;9.23;7.00;;;;;;;0.83;100.00;98225.56;1771612;79;21387;-58
2022/12/12 08:35:09;;;;;;;8.75;7.15;;;;;;;0.82;100.00;98234.20;1760586;79;21445;-56
2022/12/12 08:37:35;;;;;;;8.58;7.67;;;;;;;0.87;100.00;98227.63;1765952;79;21894;-55
2022/12/12 08:40:04;;;;;;;9.45;7.62;;;;;;;0.91;100.00;98235.70;1767273;79;21138;-55
2022/12/12 08:42:31;;;;;;;11.43;7.78;;;;;;;0.92;100.00;98251.20;1771129;79;21552;-55
2022/12/12 08:44:58;;;;;;;9.43;7.60;;;;;;;0.89;100.00;98241.37;1767109;79;21620;-56
2022/12/12 08:47:24;;;;;;;9.88;7.12;;;;;;;0.88;100.00;98247.42;1769978;79;21453;-56
2022/12/12 08:49:51;;;;;;;9.98;8.23;;;;;;;0.85;100.00;98264.31;1767778;79;21798;-56
2022/12/12 08:52:17;;;;;;;9.80;8.30;;;;;;;0.87;100.00;98246.58;1764414;79;21493;-56
2022/12/12 08:54:45;;;;;;;9.10;7.78;;;;;;;0.90;100.00;98253.41;1775947;79;21501;-56
2022/12/12 08:57:11;;;;;;;10.88;7.95;;;;;;;0.82;100.00;98250.17;1771815;79;21564;-56
2022/12/12 08:59:39;;;;;;;10.23;7.60;;;;;;;0.74;100.00;98249.08;1782865;79;21556;-55
2022/12/12 09:02:05;;;;;;;12.00;8.60;;;;;;;0.70;100.00;98237.95;1792684;78;21762;-56
2022/12/12 09:04:33;;;;;;;11.88;9.25;;;;;;;0.73;100.00;98242.19;1772946;80;21509;-56
2022/12/12 09:07:02;;;;;;;11.08;9.05;;;;;;;0.71;100.00;98242.23;1775841;78;21044;-56
2022/12/12 09:09:29;;;;;;;13.27;8.43;;;;;;;0.78;100.00;98252.83;1757307;80;21058;-57
2022/12/12 09:11:56;;;;;;;10.13;8.15;;;;;;;0.71;100.00;98247.40;1767035;80;21533;-57
2022/12/12 09:14:23;;;;;;;12.85;8.48;;;;;;;0.68;100.00;98251.38;1793826;78;21419;-56
2022/12/12 09:16:50;;;;;;;12.78;8.98;;;;;;;0.72;100.00;98258.17;1757047;80;21455;-57
2022/12/12 09:19:17;;;;;;;11.63;8.70;;;;;;;0.81;100.00;98262.70;1766082;79;20992;-56
2022/12/12 09:21:43;;;;;;;9.98;7.65;;;;;;;0.71;100.00;98269.39;1775938;79;21746;-56
2022/12/12 09:24:10;;;;;;;13.62;8.60;;;;;;;0.66;100.00;98272.56;1764482;79;21073;-54
2022/12/12 09:26:37;;;;;;;11.63;8.85;;;;;;;0.68;100.00;98286.72;1775452;79;21788;-54
2022/12/12 09:29:04;;;;;;;11.97;9.05;;;;;;;0.70;100.00;98294.03;1776801;79;21545;-54
2022/12/12 09:31:31;;;;;;;10.82;8.33;;;;;;;0.69;100.00;98301.37;1770321;79;21029;-54
2022/12/12 09:33:58;;;;;;;9.03;7.12;;;;;;;0.69;100.00;98288.44;1774758;79;21009;-54
2022/12/12 09:36:24;;;;;;;9.95;7.95;;;;;;;0.66;100.00;98291.96;1779501;79;21609;-55
2022/12/12 09:38:51;;;;;;;9.28;7.45;;;;;;;0.65;100.00;98291.54;1774819;79;21927;-55
2022/12/12 09:41:21;;;;;;;7.90;6.95;;;;;;;0.64;100.00;98288.56;1767306;78;21446;-55
2022/12/12 09:43:55;;;;;;;9.35;7.00;;;;;;;0.66;100.00;98297.14;1771245;79;20954;-55
2022/12/12 09:46:44;;;;;;;8.28;6.80;;;;;;;0.53;100.00;98289.27;1775384;79;21446;-54
2022/12/12 09:49:33;;;;;;;8.10;6.67;;;;;;;0.47;100.00;98283.80;1773799;79;21977;-54
2022/12/12 09:52:00;;;;;;;9.00;6.75;;;;;;;0.41;100.00;98283.08;1782639;79;21923;-54
2022/12/12 09:54:27;;;;;;;8.90;7.05;;;;;;;0.40;100.00;98292.58;1769610;79;21490;-54
2022/12/12 09:57:11;;;;;;;9.18;7.20;;;;;;;0.40;100.00;98292.58;1773855;79;20969;-55
2022/12/12 09:59:49;;;;;;;8.45;6.28;;;;;;;0.42;100.00;98301.15;1763317;79;21722;-54
2022/12/12 10:03:06;;;;;;;8.33;6.30;;;;;;;0.42;100.00;98317.95;1760103;79;21568;-54
2022/12/12 10:05:42;;;;;;;8.45;7.00;;;;;;;0.37;100.00;98320.62;1768017;79;21763;-54
2022/12/12 10:08:45;;;;;;;10.72;7.20;;;;;;;0.39;100.00;98317.56;1776404;79;21627;-55
2022/12/12 14:33:54;;;;;;;10.88;7.90;;;;;;;0.07;100.00;98479.83;1772025;79;23339;-57
2022/12/12 14:36:59;;;;;;;8.83;6.87;;;;;;;-0.40;100.00;98487.58;1740286;81;21549;-58
2022/12/12 14:39:43;;;;;;;9.48;6.95;;;;;;;-0.44;100.00;98484.61;1743154;80;21994;-56
2022/12/12 14:42:30;;;;;;;7.83;6.45;;;;;;;-0.46;100.00;98485.08;1742051;81;21483;-57
2022/12/12 14:44:57;;;;;;;8.95;6.50;;;;;;;-0.47;100.00;98484.68;1744494;80;28934;-57
2022/12/12 14:47:23;;;;;;;7.30;5.97;;;;;;;-0.43;100.00;98479.03;1738273;80;21050;-57
2022/12/12 14:50:08;;;;;;;7.85;5.75;;;;;;;-0.44;100.00;98478.16;1748566;80;21805;-58
2022/12/12 14:52:35;;;;;;;6.72;5.97;;;;;;;-0.44;100.00;98476.86;1741615;80;21751;-56
2022/12/12 14:55:04;;;;;;;7.87;6.22;;;;;;;-0.56;100.00;98471.92;1740897;81;21547;-56
2022/12/12 14:57:31;;;;;;;6.35;5.40;;;;;;;-0.64;100.00;98472.05;1715210;81;21567;-55
2022/12/12 14:59:59;;;;;;;6.83;5.58;;;;;;;-0.61;100.00;98479.72;1742798;80;21633;-56
2022/12/12 15:02:37;;;;;;;7.80;5.72;;;;;;;-0.55;100.00;98485.22;1687307;81;21500;-59
2022/12/12 15:05:04;;;;;;;6.30;5.05;;;;;;;-0.54;100.00;98496.42;1702962;81;21419;-56
2022/12/12 15:07:32;;;;;;;;;;;;;;;-0.61;100.00;98499.53;1744208;80;21523;-56
2022/12/12 15:10:01;;;;;;;6.78;5.67;;;;;;;-0.75;100.00;98495.89;1732185;80;20481;-58
2022/12/12 15:12:34;;;;;;;5.97;5.30;;;;;;;-0.73;100.00;98503.17;1744159;81;22723;-56
2022/12/12 15:15:00;;;;;;;6.15;4.80;;;;;;;-0.74;100.00;98505.77;1746803;81;21535;-56
2022/12/12 15:17:41;;;;;;;7.05;5.37;;;;;;;-0.74;100.00;98512.22;1743657;80;21839;-56
2022/12/12 15:20:16;;;;;;;5.87;5.28;;;;;;;-0.74;100.00;98514.80;1730368;80;21561;-58
2022/12/12 15:22:54;;;;;;;6.78;5.35;;;;;;;-0.70;100.00;98522.91;1747237;80;21495;-57
2022/12/12 15:25:29;;;;;;;6.65;5.10;;;;;;;-0.66;100.00;98524.56;1727872;81;21559;-56
2022/12/12 15:27:56;;;;;;;6.30;5.37;;;;;;;-0.64;100.00;98535.72;1739732;81;21433;-56
2022/12/12 15:30:39;;;;;;;6.87;5.42;;;;;;;-0.66;100.00;98538.76;1736582;81;21914;-58
2022/12/12 15:33:17;;;;;;;6.00;5.40;;;;;;;-0.73;100.00;98540.59;1742634;80;21420;-58
2022/12/12 15:35:56;;;;;;;;;;;;;;;-0.71;100.00;98544.01;1748824;80;21443;-57
2022/12/12 15:38:22;;;;;;;5.87;4.58;;;;;;;-0.78;100.00;98552.71;1743184;80;20437;-59
2022/12/12 15:40:51;;;;;;;6.15;5.47;;;;;;;-0.72;100.00;98555.64;1742530;80;21554;-58
2022/12/12 15:43:22;;;;;;;6.72;5.58;;;;;;;-0.73;100.00;98555.24;1744869;80;21799;-59
2022/12/12 15:45:56;;;;;;;7.87;6.42;;;;;;;-0.74;100.00;98559.98;1706330;83;21526;-58
2022/12/12 15:48:22;;;;;;;9.05;6.85;;;;;;;-0.76;100.00;98572.90;1700600;82;21604;-58
2022/12/12 15:51:00;;;;;;;7.65;6.37;;;;;;;-0.76;100.00;98576.77;1700667;82;21062;-58
2022/12/12 15:53:35;;;;;;;7.25;6.35;;;;;;;-0.75;100.00;98582.77;1672483;83;21581;-57
2022/12/12 15:56:07;;;;;;;29.50;19.07;;;;;;;-0.68;100.00;98590.86;1703659;83;21762;-59
2022/12/12 15:58:37;;;;;;;17.85;12.90;;;;;;;-0.63;100.00;98592.94;1686083;83;21410;-58
2022/12/12 16:01:18;;;;;;;12.30;8.95;;;;;;;-0.60;100.00;98595.05;1686110;83;21711;-57
2022/12/12 16:04:06;;;;;;;10.53;7.83;;;;;;;-0.52;100.00;98594.93;1689069;83;21544;-57
2022/12/12 16:06:36;;;;;;;8.58;7.62;;;;;;;-0.43;100.00;98592.66;1693222;83;21431;-57
2022/12/12 16:09:22;;;;;;;8.63;6.72;;;;;;;-0.36;100.00;98595.54;1691313;82;21828;-57
2022/12/12 16:11:58;;;;;;;7.65;6.58;;;;;;;-0.35;100.00;98591.25;1695500;83;21562;-58
2022/12/12 16:14:36;;;;;;;8.75;6.45;;;;;;;-0.33;100.00;98594.22;1684006;83;21493;-57
2022/12/12 16:17:15;;;;;;;;;;;;;;;-0.32;100.00;98595.94;1680516;83;20965;-58
2022/12/12 16:20:02;;;;;;;10.65;7.20;;;;;;;-0.35;100.00;98596.41;1709667;83;20445;-57
2022/12/12 16:22:44;;;;;;;10.35;7.42;;;;;;;-0.24;100.00;98595.36;1700809;83;21834;-58
2022/12/12 16:25:24;;;;;;;13.85;10.23;;;;;;;-0.13;100.00;98595.20;1705723;82;21608;-57
2022/12/12 16:27:57;;;;;;;13.08;9.75;;;;;;;-0.04;100.00;98588.59;1699118;83;21596;-58
2022/12/12 16:30:25;;;;;;;11.85;9.25;;;;;;;0.01;100.00;98591.53;1709695;83;21515;-58
2022/12/12 16:32:53;;;;;;;13.00;9.25;;;;;;;0.05;100.00;98597.90;1681099;83;21459;-58
2022/12/12 16:35:22;;;;;;;14.10;9.93;;;;;;;0.08;100.00;98598.30;1655260;85;21957;-58
2022/12/12 16:37:50;;;;;;;13.25;10.13;;;;;;;0.09;100.00;98600.00;1650198;85;22224;-58
2022/12/12 16:40:17;;;;;;;;;;;;;;;0.14;100.00;98602.91;1652443;85;21473;-57
2022/12/12 16:42:48;;;;;;;18.52;11.30;;;;;;;0.10;100.00;98601.72;1705512;83;20239;-57
2022/12/12 16:45:16;;;;;;;17.62;11.00;;;;;;;0.13;100.00;98602.52;1703998;83;21462;-57
2022/12/12 16:47:43;;;;;;;14.53;9.60;;;;;;;0.13;100.00;98598.64;1700174;83;21767;-57
2022/12/12 16:50:12;;;;;;;15.40;9.90;;;;;;;0.15;100.00;98599.88;1691601;83;21643;-57
2022/12/12 16:52:39;;;;;;;17.17;11.48;;;;;;;0.18;100.00;98600.68;1657158;83;21497;-58
2022/12/12 16:55:19;;;;;;;22.05;13.18;;;;;;;0.25;100.00;98608.35;1695760;83;21444;-59
2022/12/12 16:57:46;;;;;;;16.70;11.25;;;;;;;0.26;100.00;98612.18;1702762;83;21414;-58
2022/12/12 17:00:13;;;;;;;14.07;9.93;;;;;;;0.22;100.00;98611.83;1678909;83;21912;-58
2022/12/12 17:02:40;;;;;;;12.60;9.58;;;;;;;0.20;100.00;98608.42;1670920;84;21655;-59
2022/12/12 17:05:11;;;;;;;10.68;8.00;;;;;;;0.20;100.00;98608.42;1644346;85;21481;-59
2022/12/12 17:07:38;;;;;;;10.10;8.40;;;;;;;0.23;100.00;98604.50;1646310;85;21605;-58
2022/12/12 17:10:06;;;;;;;10.37;8.03;;;;;;;0.28;100.00;98610.41;1633554;85;21609;-57
2022/12/12 17:12:33;;;;;;;9.65;7.75;;;;;;;0.29;100.00;98603.09;1678110;84;21788;-56
2022/12/12 17:15:00;;;;;;;10.13;7.85;;;;;;;0.32;100.00;98605.63;1675264;84;21515;-58
2022/12/12 17:17:27;;;;;;;10.82;8.50;;;;;;;0.31;100.00;98603.91;1650656;84;21025;-57
2022/12/12 17:19:53;;;;;;;9.65;7.95;;;;;;;0.34;100.00;98597.81;1672079;84;21530;-57
